Terminal Aerodrome Forecast
Issued by NWS Pendleton, OR

Home | Current Version | Previous Version | Text Only | Print | Product List | Glossary On
Versions: 1 2 3 4 5 6 7 8 9 10 11 12 13 14
000
FTUS46 KPDT 240100 AAA
TAFPDT
TAF AMD
KPDT 240157Z 2402/2424 27015G25KT P6SM SCT040 BKN060
     FM240400 26018G26KT P6SM VCSH BKN050
     FM240700 25013KT P6SM SCT050
     FM241800 27015G25KT P6SM SCT080=

USA.gov is the U.S. government's official web portal to all federal, state and local government web resources and services.